Pagina principală
METAR-TAF:

METAR-TAF

Aeroporturi :

Base Presidente Eduardo Frei Montalva, Chile

Latitudine: 62-11-28S, longitudine: 58-59-11W, elevație: 45 m

Observații meteo curente

Raportul a fost făcut în urmă cu 1 oră și 41 de minute, la 00:00 UTC
Vânt 20 kt de la Vest
Temperatură -3°C
Umiditate 80%
Presiune 981 hPa
Vizibilitate: 8000 m
Nori împrăștiați la o înălțime de 2000 picior
Total acoperit la o înălțime de 4000 picior
averse în apropiere,

METAR: SCRM 220000Z 27020KT 8000 VCSH SCT020 OVC040 M03/M06 Q0981 NOSIG

Ora: 21:41 (01:41 UTC)


TAF: lipsă

Observații și prognoze meteo pentru peste 4.000 de aeroporturi (rapoarte METAR și TAF).

Stațiile disponibile sunt reprezentate pe hartă prin puncte galbene și roșii.

Țineți indicatorul mouse-ului pe punctul dorit pentru a vedea denumirea stației.

Apoi, faceți clic pentru a vedea observațiile și prognozele meteorologice.

Pentru a schimba harta: Pentru mărire, faceți clic pe butoanele verzi cu cruce neagră; pentru micșorare, pe butonul verde cu o liniuță; pentru hărți învecinate, pe săgețile verzi.


METAR-TAF: